sensor_id;sensor_type;location;lat;lon;timestamp;pressure;altitude;pressure_sealevel;temperature;humidity
34674;BME280;20879;55.668;37.858;2023-04-29T00:02:30;99526.50;;;4.28;100.00
34674;BME280;20879;55.668;37.858;2023-04-29T00:05:00;99545.31;;;4.31;100.00
34674;BME280;20879;55.668;37.858;2023-04-29T00:07:31;99529.00;;;4.22;100.00
34674;BME280;20879;55.668;37.858;2023-04-29T00:10:02;99532.47;;;4.27;100.00
34674;BME280;20879;55.668;37.858;2023-04-29T00:12:31;99527.38;;;4.33;99.52
34674;BME280;20879;55.668;37.858;2023-04-29T00:15:01;99531.63;;;4.25;99.65
34674;BME280;20879;55.668;37.858;2023-04-29T00:17:52;99535.00;;;4.22;99.52
34674;BME280;20879;55.668;37.858;2023-04-29T00:20:26;99535.81;;;4.16;98.88
34674;BME280;20879;55.668;37.858;2023-04-29T00:22:56;99507.50;;;4.01;98.70
34674;BME280;20879;55.668;37.858;2023-04-29T00:25:25;99529.72;;;4.02;98.50
34674;BME280;20879;55.668;37.858;2023-04-29T00:27:54;99543.28;;;3.92;99.13
34674;BME280;20879;55.668;37.858;2023-04-29T00:30:47;99519.38;;;3.88;99.05
34674;BME280;20879;55.668;37.858;2023-04-29T00:33:18;99523.56;;;3.81;99.24
34674;BME280;20879;55.668;37.858;2023-04-29T00:35:47;99514.16;;;3.82;99.42
34674;BME280;20879;55.668;37.858;2023-04-29T00:38:17;99509.03;;;3.80;99.39
34674;BME280;20879;55.668;37.858;2023-04-29T00:40:57;99521.75;;;3.70;99.20
34674;BME280;20879;55.668;37.858;2023-04-29T00:43:47;99502.03;;;3.61;99.65
34674;BME280;20879;55.668;37.858;2023-04-29T00:46:34;99503.72;;;3.59;100.00
34674;BME280;20879;55.668;37.858;2023-04-29T00:49:12;99466.09;;;3.48;100.00
34674;BME280;20879;55.668;37.858;2023-04-29T00:51:43;99493.38;;;3.48;100.00
34674;BME280;20879;55.668;37.858;2023-04-29T00:54:13;99499.28;;;3.42;100.00
34674;BME280;20879;55.668;37.858;2023-04-29T00:56:44;99479.69;;;3.43;100.00
34674;BME280;20879;55.668;37.858;2023-04-29T00:59:14;99490.59;;;3.28;100.00
34674;BME280;20879;55.668;37.858;2023-04-29T01:01:49;99493.16;;;3.28;100.00
34674;BME280;20879;55.668;37.858;2023-04-29T01:04:22;99499.19;;;3.31;100.00
34674;BME280;20879;55.668;37.858;2023-04-29T01:07:02;99463.06;;;3.05;100.00
34674;BME280;20879;55.668;37.858;2023-04-29T01:09:45;99498.16;;;3.17;100.00
34674;BME280;20879;55.668;37.858;2023-04-29T01:12:20;99518.78;;;3.29;100.00
34674;BME280;20879;55.668;37.858;2023-04-29T01:15:03;99528.22;;;3.37;100.00
34674;BME280;20879;55.668;37.858;2023-04-29T01:17:40;99536.03;;;3.46;100.00
34674;BME280;20879;55.668;37.858;2023-04-29T01:20:14;99533.53;;;3.54;100.00
34674;BME280;20879;55.668;37.858;2023-04-29T01:22:44;99538.69;;;3.57;100.00
34674;BME280;20879;55.668;37.858;2023-04-29T01:25:22;99528.44;;;3.57;100.00
34674;BME280;20879;55.668;37.858;2023-04-29T01:28:20;99525.94;;;3.63;100.00
34674;BME280;20879;55.668;37.858;2023-04-29T01:30:56;99519.97;;;3.64;100.00
34674;BME280;20879;55.668;37.858;2023-04-29T01:33:34;99508.88;;;3.63;100.00
34674;BME280;20879;55.668;37.858;2023-04-29T01:36:30;99508.75;;;3.53;100.00
34674;BME280;20879;55.668;37.858;2023-04-29T01:39:06;99528.53;;;3.66;100.00
34674;BME280;20879;55.668;37.858;2023-04-29T01:41:42;99480.50;;;3.40;100.00
34674;BME280;20879;55.668;37.858;2023-04-29T01:44:21;99526.06;;;3.74;100.00
34674;BME280;20879;55.668;37.858;2023-04-29T01:46:52;99522.59;;;3.68;100.00
34674;BME280;20879;55.668;37.858;2023-04-29T01:49:34;99529.41;;;3.68;100.00
34674;BME280;20879;55.668;37.858;2023-04-29T01:52:11;99533.72;;;3.72;100.00
34674;BME280;20879;55.668;37.858;2023-04-29T01:54:49;99520.78;;;3.58;100.00
34674;BME280;20879;55.668;37.858;2023-04-29T01:57:20;99485.53;;;3.31;100.00
34674;BME280;20879;55.668;37.858;2023-04-29T02:00:02;99539.47;;;3.49;100.00
34674;BME280;20879;55.668;37.858;2023-04-29T02:02:45;99542.97;;;3.58;100.00
34674;BME280;20879;55.668;37.858;2023-04-29T02:05:26;99541.25;;;3.58;100.00
34674;BME280;20879;55.668;37.858;2023-04-29T02:07:58;99533.59;;;3.60;100.00
34674;BME280;20879;55.668;37.858;2023-04-29T02:10:29;99531.97;;;3.66;100.00
34674;BME280;20879;55.668;37.858;2023-04-29T02:13:31;99521.72;;;3.65;100.00
34674;BME280;20879;55.668;37.858;2023-04-29T02:16:11;99508.91;;;3.65;100.00
34674;BME280;20879;55.668;37.858;2023-04-29T02:18:46;99518.19;;;3.55;100.00
34674;BME280;20879;55.668;37.858;2023-04-29T02:21:16;99458.81;;;3.07;100.00
34674;BME280;20879;55.668;37.858;2023-04-29T02:23:50;99523.19;;;3.41;100.00
34674;BME280;20879;55.668;37.858;2023-04-29T02:26:25;99503.38;;;3.28;100.00
34674;BME280;20879;55.668;37.858;2023-04-29T02:28:57;99530.00;;;3.42;100.00
34674;BME280;20879;55.668;37.858;2023-04-29T02:31:27;99531.72;;;3.42;100.00
34674;BME280;20879;55.668;37.858;2023-04-29T02:33:56;99536.91;;;3.49;100.00
34674;BME280;20879;55.668;37.858;2023-04-29T02:36:34;99544.56;;;3.49;100.00
34674;BME280;20879;55.668;37.858;2023-04-29T02:39:03;99499.13;;;3.27;100.00
34674;BME280;20879;55.668;37.858;2023-04-29T02:41:34;99552.22;;;3.46;100.00
34674;BME280;20879;55.668;37.858;2023-04-29T02:44:05;99565.78;;;3.39;100.00
34674;BME280;20879;55.668;37.858;2023-04-29T02:46:35;99574.22;;;3.30;100.00
34674;BME280;20879;55.668;37.858;2023-04-29T02:49:06;99571.56;;;3.20;100.00
34674;BME280;20879;55.668;37.858;2023-04-29T02:51:35;99591.94;;;3.13;100.00
34674;BME280;20879;55.668;37.858;2023-04-29T02:54:10;99587.78;;;3.22;100.00
34674;BME280;20879;55.668;37.858;2023-04-29T02:56:39;99588.50;;;3.13;100.00
34674;BME280;20879;55.668;37.858;2023-04-29T02:59:11;99604.81;;;3.20;100.00
34674;BME280;20879;55.668;37.858;2023-04-29T03:01:40;99603.03;;;3.14;100.00
34674;BME280;20879;55.668;37.858;2023-04-29T03:04:14;99607.31;;;3.13;100.00
34674;BME280;20879;55.668;37.858;2023-04-29T03:06:43;99618.31;;;3.09;100.00
34674;BME280;20879;55.668;37.858;2023-04-29T03:09:13;99623.41;;;3.06;100.00
34674;BME280;20879;55.668;37.858;2023-04-29T03:11:44;99627.84;;;3.20;100.00
34674;BME280;20879;55.668;37.858;2023-04-29T03:14:16;99634.56;;;3.13;100.00
34674;BME280;20879;55.668;37.858;2023-04-29T03:16:52;99633.44;;;2.94;100.00
34674;BME280;20879;55.668;37.858;2023-04-29T03:19:22;99625.53;;;2.75;100.00
34674;BME280;20879;55.668;37.858;2023-04-29T03:21:57;99630.72;;;2.82;100.00
34674;BME280;20879;55.668;37.858;2023-04-29T03:24:27;99639.91;;;2.70;100.00
34674;BME280;20879;55.668;37.858;2023-04-29T03:27:01;99643.44;;;2.75;100.00
34674;BME280;20879;55.668;37.858;2023-04-29T03:29:34;99638.16;;;2.68;100.00
34674;BME280;20879;55.668;37.858;2023-04-29T03:32:04;99614.75;;;2.41;100.00
34674;BME280;20879;55.668;37.858;2023-04-29T03:34:39;99637.22;;;2.61;100.00
34674;BME280;20879;55.668;37.858;2023-04-29T03:37:23;99629.53;;;2.58;100.00
34674;BME280;20879;55.668;37.858;2023-04-29T03:40:01;99623.34;;;2.45;100.00
34674;BME280;20879;55.668;37.858;2023-04-29T03:42:31;99645.66;;;2.55;100.00
34674;BME280;20879;55.668;37.858;2023-04-29T03:45:03;99638.13;;;2.65;100.00
34674;BME280;20879;55.668;37.858;2023-04-29T03:47:39;99649.13;;;2.60;100.00
34674;BME280;20879;55.668;37.858;2023-04-29T03:50:10;99646.56;;;2.59;100.00
34674;BME280;20879;55.668;37.858;2023-04-29T03:52:46;99653.25;;;2.51;100.00
34674;BME280;20879;55.668;37.858;2023-04-29T03:55:18;99665.31;;;2.58;100.00
34674;BME280;20879;55.668;37.858;2023-04-29T03:57:48;99629.16;;;2.36;100.00
34674;BME280;20879;55.668;37.858;2023-04-29T04:00:20;99654.94;;;2.52;100.00
34674;BME280;20879;55.668;37.858;2023-04-29T04:02:54;99680.44;;;2.47;100.00
34674;BME280;20879;55.668;37.858;2023-04-29T04:05:24;99677.72;;;2.36;100.00
34674;BME280;20879;55.668;37.858;2023-04-29T04:08:00;99670.16;;;2.42;100.00
34674;BME280;20879;55.668;37.858;2023-04-29T04:10:32;99673.53;;;2.41;100.00
34674;BME280;20879;55.668;37.858;2023-04-29T04:13:07;99678.47;;;2.31;100.00
34674;BME280;20879;55.668;37.858;2023-04-29T04:15:38;99659.94;;;2.42;100.00
34674;BME280;20879;55.668;37.858;2023-04-29T04:18:08;99674.34;;;2.37;100.00
34674;BME280;20879;55.668;37.858;2023-04-29T04:20:44;99682.00;;;2.37;100.00
34674;BME280;20879;55.668;37.858;2023-04-29T04:23:14;99661.59;;;2.39;100.00
34674;BME280;20879;55.668;37.858;2023-04-29T04:25:45;99679.69;;;2.53;100.00
34674;BME280;20879;55.668;37.858;2023-04-29T04:28:48;99683.28;;;2.64;100.00
34674;BME280;20879;55.668;37.858;2023-04-29T04:31:31;99676.69;;;2.77;100.00
34674;BME280;20879;55.668;37.858;2023-04-29T04:34:00;99683.53;;;2.81;100.00
34674;BME280;20879;55.668;37.858;2023-04-29T04:36:31;99685.47;;;2.94;100.00
34674;BME280;20879;55.668;37.858;2023-04-29T04:39:01;99665.91;;;2.98;100.00
34674;BME280;20879;55.668;37.858;2023-04-29T04:41:39;99674.78;;;3.22;100.00
34674;BME280;20879;55.668;37.858;2023-04-29T04:44:08;99667.91;;;3.19;100.00
34674;BME280;20879;55.668;37.858;2023-04-29T04:46:58;99671.38;;;3.23;99.25
34674;BME280;20879;55.668;37.858;2023-04-29T04:49:47;99666.41;;;3.35;99.01
34674;BME280;20879;55.668;37.858;2023-04-29T04:52:21;99686.88;;;3.35;98.51
34674;BME280;20879;55.668;37.858;2023-04-29T04:55:16;99692.84;;;3.31;98.66
34674;BME280;20879;55.668;37.858;2023-04-29T04:57:49;99688.63;;;3.38;98.47
34674;BME280;20879;55.668;37.858;2023-04-29T05:00:29;99684.41;;;3.40;97.99
34674;BME280;20879;55.668;37.858;2023-04-29T05:03:00;99673.28;;;3.38;96.64
34674;BME280;20879;55.668;37.858;2023-04-29T05:05:32;99682.63;;;3.32;96.56
34674;BME280;20879;55.668;37.858;2023-04-29T05:08:02;99687.00;;;3.41;96.07
34674;BME280;20879;55.668;37.858;2023-04-29T05:10:41;99680.19;;;3.45;95.82
34674;BME280;20879;55.668;37.858;2023-04-29T05:13:11;99676.81;;;3.46;94.57
34674;BME280;20879;55.668;37.858;2023-04-29T05:15:42;99663.28;;;3.55;94.01
34674;BME280;20879;55.668;37.858;2023-04-29T05:18:14;99663.38;;;3.64;93.71
34674;BME280;20879;55.668;37.858;2023-04-29T05:20:47;99670.25;;;3.66;93.07
34674;BME280;20879;55.668;37.858;2023-04-29T05:23:21;99657.66;;;3.87;93.12
34674;BME280;20879;55.668;37.858;2023-04-29T05:25:51;99681.69;;;3.98;91.97
34674;BME280;20879;55.668;37.858;2023-04-29T05:28:25;99668.81;;;3.92;91.16
34674;BME280;20879;55.668;37.858;2023-04-29T05:30:55;99681.59;;;3.89;91.67
34674;BME280;20879;55.668;37.858;2023-04-29T05:33:27;99690.22;;;3.97;91.81
34674;BME280;20879;55.668;37.858;2023-04-29T05:35:56;99684.38;;;4.07;90.89
34674;BME280;20879;55.668;37.858;2023-04-29T05:38:26;99663.75;;;3.98;90.60
34674;BME280;20879;55.668;37.858;2023-04-29T05:41:12;99695.53;;;4.14;90.12
34674;BME280;20879;55.668;37.858;2023-04-29T05:43:42;99685.97;;;3.99;90.60
34674;BME280;20879;55.668;37.858;2023-04-29T05:46:16;99703.19;;;4.11;89.96
34674;BME280;20879;55.668;37.858;2023-04-29T05:48:48;99687.03;;;4.19;90.05
34674;BME280;20879;55.668;37.858;2023-04-29T05:51:18;99703.84;;;3.93;90.07
34674;BME280;20879;55.668;37.858;2023-04-29T05:53:48;99693.00;;;4.20;90.20
34674;BME280;20879;55.668;37.858;2023-04-29T05:56:18;99695.00;;;4.46;89.73
34674;BME280;20879;55.668;37.858;2023-04-29T05:58:48;99720.66;;;4.49;88.77
34674;BME280;20879;55.668;37.858;2023-04-29T06:04:27;99724.28;;;4.71;88.98
34674;BME280;20879;55.668;37.858;2023-04-29T06:07:07;99718.47;;;4.92;87.72
34674;BME280;20879;55.668;37.858;2023-04-29T06:10:03;99691.91;;;4.88;86.94
34674;BME280;20879;55.668;37.858;2023-04-29T06:12:46;99722.69;;;4.88;86.19
34674;BME280;20879;55.668;37.858;2023-04-29T06:15:17;99736.34;;;4.84;86.49
34674;BME280;20879;55.668;37.858;2023-04-29T06:17:51;99736.34;;;4.84;85.30
34674;BME280;20879;55.668;37.858;2023-04-29T06:20:23;99743.13;;;4.76;85.97
34674;BME280;20879;55.668;37.858;2023-04-29T06:22:53;99751.66;;;4.75;86.05
34674;BME280;20879;55.668;37.858;2023-04-29T06:25:23;99753.38;;;4.73;86.20
34674;BME280;20879;55.668;37.858;2023-04-29T06:27:53;99742.19;;;4.66;86.35
34674;BME280;20879;55.668;37.858;2023-04-29T06:30:33;99763.91;;;5.07;84.47
34674;BME280;20879;55.668;37.858;2023-04-29T06:33:03;99715.06;;;4.95;84.57
34674;BME280;20879;55.668;37.858;2023-04-29T06:35:38;99764.22;;;5.50;83.80
34674;BME280;20879;55.668;37.858;2023-04-29T06:38:10;99752.31;;;5.65;83.36
34674;BME280;20879;55.668;37.858;2023-04-29T06:41:18;99775.53;;;5.78;80.41
34674;BME280;20879;55.668;37.858;2023-04-29T06:44:05;99770.41;;;5.83;80.32
34674;BME280;20879;55.668;37.858;2023-04-29T06:47:19;99751.56;;;5.87;80.36
34674;BME280;20879;55.668;37.858;2023-04-29T06:50:21;99780.03;;;6.27;79.44
34674;BME280;20879;55.668;37.858;2023-04-29T06:52:57;99754.31;;;6.26;79.96
34674;BME280;20879;55.668;37.858;2023-04-29T06:55:27;99764.59;;;6.24;79.64
34674;BME280;20879;55.668;37.858;2023-04-29T06:58:14;99768.88;;;6.24;80.04
34674;BME280;20879;55.668;37.858;2023-04-29T07:03:31;99790.44;;;6.69;80.25
34674;BME280;20879;55.668;37.858;2023-04-29T07:06:01;99757.88;;;6.90;78.15
34674;BME280;20879;55.668;37.858;2023-04-29T07:08:38;99804.19;;;7.28;76.12
34674;BME280;20879;55.668;37.858;2023-04-29T07:11:14;99802.47;;;7.49;77.53
34674;BME280;20879;55.668;37.858;2023-04-29T07:13:45;99797.22;;;7.92;75.46
34674;BME280;20879;55.668;37.858;2023-04-29T07:16:19;99790.34;;;7.94;74.17
34674;BME280;20879;55.668;37.858;2023-04-29T07:18:57;99817.91;;;7.69;72.70
34674;BME280;20879;55.668;37.858;2023-04-29T07:21:27;99814.50;;;7.47;74.04
34674;BME280;20879;55.668;37.858;2023-04-29T07:23:59;99812.69;;;7.94;73.08
34674;BME280;20879;55.668;37.858;2023-04-29T07:26:30;99808.41;;;7.79;71.50
34674;BME280;20879;55.668;37.858;2023-04-29T07:29:00;99814.44;;;7.81;71.68
34674;BME280;20879;55.668;37.858;2023-04-29T07:31:30;99816.06;;;8.11;70.55
34674;BME280;20879;55.668;37.858;2023-04-29T07:34:03;99821.19;;;8.22;70.62
34674;BME280;20879;55.668;37.858;2023-04-29T07:36:32;99829.72;;;8.46;70.51
34674;BME280;20879;55.668;37.858;2023-04-29T07:39:04;99809.84;;;8.63;70.10
34674;BME280;20879;55.668;37.858;2023-04-29T07:41:33;99820.84;;;8.95;69.58
34674;BME280;20879;55.668;37.858;2023-04-29T07:44:07;99838.09;;;8.88;67.00
34674;BME280;20879;55.668;37.858;2023-04-29T07:46:37;99827.09;;;8.58;68.78
34674;BME280;20879;55.668;37.858;2023-04-29T07:49:07;99839.19;;;8.47;68.26
34674;BME280;20879;55.668;37.858;2023-04-29T07:51:40;99847.81;;;8.33;67.37
34674;BME280;20879;55.668;37.858;2023-04-29T07:54:12;99838.22;;;8.65;67.05
34674;BME280;20879;55.668;37.858;2023-04-29T07:56:41;99820.84;;;8.96;65.53
34674;BME280;20879;55.668;37.858;2023-04-29T07:59:11;99842.63;;;8.46;66.47
34674;BME280;20879;55.668;37.858;2023-04-29T08:01:41;99828.69;;;8.79;65.59
34674;BME280;20879;55.668;37.858;2023-04-29T08:04:10;99856.34;;;8.43;65.97
34674;BME280;20879;55.668;37.858;2023-04-29T08:06:47;99864.19;;;8.23;67.41
34674;BME280;20879;55.668;37.858;2023-04-29T08:09:19;99865.75;;;8.64;66.42
34674;BME280;20879;55.668;37.858;2023-04-29T08:11:49;99860.31;;;9.10;65.11
34674;BME280;20879;55.668;37.858;2023-04-29T08:14:18;99840.34;;;9.31;63.89
34674;BME280;20879;55.668;37.858;2023-04-29T08:16:53;99862.09;;;9.02;65.07
34674;BME280;20879;55.668;37.858;2023-04-29T08:19:28;99839.94;;;8.67;64.55
34674;BME280;20879;55.668;37.858;2023-04-29T08:22:03;99860.63;;;8.58;65.24
34674;BME280;20879;55.668;37.858;2023-04-29T08:24:34;99856.22;;;8.80;65.02
34674;BME280;20879;55.668;37.858;2023-04-29T08:27:04;99845.06;;;8.73;63.73
34674;BME280;20879;55.668;37.858;2023-04-29T08:29:40;99857.75;;;9.07;63.21
34674;BME280;20879;55.668;37.858;2023-04-29T08:32:09;99846.44;;;9.27;62.93
34674;BME280;20879;55.668;37.858;2023-04-29T08:34:39;99861.94;;;9.27;64.01
34674;BME280;20879;55.668;37.858;2023-04-29T08:37:08;99860.28;;;9.17;64.21
34674;BME280;20879;55.668;37.858;2023-04-29T08:39:39;99843.03;;;9.19;63.63
34674;BME280;20879;55.668;37.858;2023-04-29T08:42:09;99859.53;;;9.02;63.50
34674;BME280;20879;55.668;37.858;2023-04-29T08:44:42;99864.25;;;9.61;62.38
34674;BME280;20879;55.668;37.858;2023-04-29T08:47:19;99846.81;;;9.80;62.26
34674;BME280;20879;55.668;37.858;2023-04-29T08:49:49;99864.84;;;9.88;61.59
34674;BME280;20879;55.668;37.858;2023-04-29T08:52:18;99843.31;;;9.86;60.72
34674;BME280;20879;55.668;37.858;2023-04-29T08:54:55;99860.03;;;9.48;60.87
34674;BME280;20879;55.668;37.858;2023-04-29T08:57:25;99870.13;;;9.78;61.02
34674;BME280;20879;55.668;37.858;2023-04-29T09:00:01;99880.03;;;10.19;59.41
34674;BME280;20879;55.668;37.858;2023-04-29T09:02:32;99869.81;;;10.09;59.13
34674;BME280;20879;55.668;37.858;2023-04-29T09:05:04;99882.16;;;9.78;59.39
34674;BME280;20879;55.668;37.858;2023-04-29T09:07:37;99871.28;;;9.43;59.66
34674;BME280;20879;55.668;37.858;2023-04-29T09:10:10;99892.78;;;9.47;60.68
34674;BME280;20879;55.668;37.858;2023-04-29T09:12:40;99872.06;;;9.55;60.47
34674;BME280;20879;55.668;37.858;2023-04-29T09:15:10;99884.16;;;9.48;60.73
34674;BME280;20879;55.668;37.858;2023-04-29T09:17:42;99890.41;;;9.18;61.12
34674;BME280;20879;55.668;37.858;2023-04-29T09:20:26;99896.63;;;8.86;61.48
34674;BME280;20879;55.668;37.858;2023-04-29T09:22:57;99889.84;;;8.66;62.16
34674;BME280;20879;55.668;37.858;2023-04-29T09:25:29;99892.38;;;8.71;62.50
34674;BME280;20879;55.668;37.858;2023-04-29T09:28:13;99903.56;;;8.78;62.57
34674;BME280;20879;55.668;37.858;2023-04-29T09:30:46;99900.72;;;9.18;60.50
34674;BME280;20879;55.668;37.858;2023-04-29T09:33:16;99899.63;;;9.53;58.88
34674;BME280;20879;55.668;37.858;2023-04-29T09:35:46;99901.22;;;9.72;58.02
34674;BME280;20879;55.668;37.858;2023-04-29T09:38:15;99890.78;;;9.82;57.96
34674;BME280;20879;55.668;37.858;2023-04-29T09:40:47;99890.72;;;9.86;57.90
34674;BME280;20879;55.668;37.858;2023-04-29T09:43:27;99900.94;;;10.00;57.41
34674;BME280;20879;55.668;37.858;2023-04-29T09:45:56;99906.09;;;10.03;57.33
34674;BME280;20879;55.668;37.858;2023-04-29T09:48:30;99909.22;;;10.33;55.37
34674;BME280;20879;55.668;37.858;2023-04-29T09:51:06;99842.59;;;10.51;54.26
34674;BME280;20879;55.668;37.858;2023-04-29T09:53:41;99926.56;;;10.23;53.04
34674;BME280;20879;55.668;37.858;2023-04-29T09:56:17;99902.34;;;10.29;52.84
34674;BME280;20879;55.668;37.858;2023-04-29T09:59:11;99928.81;;;10.59;51.90
34674;BME280;20879;55.668;37.858;2023-04-29T10:01:41;99920.06;;;10.69;49.45
34674;BME280;20879;55.668;37.858;2023-04-29T10:04:17;99902.81;;;10.66;48.70
34674;BME280;20879;55.668;37.858;2023-04-29T10:06:49;99912.19;;;10.75;49.52
34674;BME280;20879;55.668;37.858;2023-04-29T10:09:20;99922.75;;;10.60;50.24
34674;BME280;20879;55.668;37.858;2023-04-29T10:11:53;99927.28;;;10.41;50.00
34674;BME280;20879;55.668;37.858;2023-04-29T10:14:30;99914.56;;;10.18;49.50
34674;BME280;20879;55.668;37.858;2023-04-29T10:19:56;99940.44;;;10.14;48.23
34674;BME280;20879;55.668;37.858;2023-04-29T10:22:46;99942.28;;;10.06;49.36
34674;BME280;20879;55.668;37.858;2023-04-29T10:25:18;99959.34;;;10.23;48.26
34674;BME280;20879;55.668;37.858;2023-04-29T10:27:50;99943.91;;;10.17;47.57
34674;BME280;20879;55.668;37.858;2023-04-29T10:30:34;99941.22;;;10.24;46.99
34674;BME280;20879;55.668;37.858;2023-04-29T10:33:06;99954.94;;;10.36;47.09
34674;BME280;20879;55.668;37.858;2023-04-29T10:35:47;99895.03;;;10.68;47.00
34674;BME280;20879;55.668;37.858;2023-04-29T10:38:19;99937.81;;;11.58;47.17
34674;BME280;20879;55.668;37.858;2023-04-29T10:40:53;99933.75;;;11.96;45.27
34674;BME280;20879;55.668;37.858;2023-04-29T10:43:27;99926.13;;;11.85;44.78
34674;BME280;20879;55.668;37.858;2023-04-29T10:46:16;99961.88;;;11.67;45.61
34674;BME280;20879;55.668;37.858;2023-04-29T10:48:48;99941.00;;;11.75;46.17
34674;BME280;20879;55.668;37.858;2023-04-29T10:51:27;99948.94;;;11.66;45.57
34674;BME280;20879;55.668;37.858;2023-04-29T10:54:05;99931.94;;;11.46;45.86
34674;BME280;20879;55.668;37.858;2023-04-29T10:56:37;99951.97;;;11.36;45.55
34674;BME280;20879;55.668;37.858;2023-04-29T10:59:12;99950.13;;;11.43;44.85
34674;BME280;20879;55.668;37.858;2023-04-29T11:01:46;99919.28;;;11.26;44.52
34674;BME280;20879;55.668;37.858;2023-04-29T11:07:40;99954.03;;;11.70;44.05
34674;BME280;20879;55.668;37.858;2023-04-29T11:10:16;99956.94;;;11.50;44.32
34674;BME280;20879;55.668;37.858;2023-04-29T11:12:46;99965.13;;;11.23;44.52
34674;BME280;20879;55.668;37.858;2023-04-29T11:15:19;99972.34;;;10.99;45.22
34674;BME280;20879;55.668;37.858;2023-04-29T11:21:12;99983.44;;;11.10;45.00
34674;BME280;20879;55.668;37.858;2023-04-29T11:23:55;99972.03;;;11.22;45.61
34674;BME280;20879;55.668;37.858;2023-04-29T11:26:25;99966.78;;;11.27;44.70
34674;BME280;20879;55.668;37.858;2023-04-29T11:31:47;99971.47;;;11.61;44.04
34674;BME280;20879;55.668;37.858;2023-04-29T11:34:16;99976.75;;;11.54;43.70
34674;BME280;20879;55.668;37.858;2023-04-29T11:36:53;99980.78;;;11.74;43.78
34674;BME280;20879;55.668;37.858;2023-04-29T11:39:22;99953.66;;;11.97;41.81
34674;BME280;20879;55.668;37.858;2023-04-29T11:42:02;99971.13;;;11.82;42.21
34674;BME280;20879;55.668;37.858;2023-04-29T11:44:35;99968.50;;;11.85;42.75
34674;BME280;20879;55.668;37.858;2023-04-29T11:47:07;99962.56;;;11.79;42.89
34674;BME280;20879;55.668;37.858;2023-04-29T11:49:42;99967.19;;;11.60;43.64
34674;BME280;20879;55.668;37.858;2023-04-29T11:52:12;99933.91;;;11.32;42.50
34674;BME280;20879;55.668;37.858;2023-04-29T11:54:57;99974.69;;;11.19;43.87
34674;BME280;20879;55.668;37.858;2023-04-29T11:57:26;99971.38;;;11.08;44.68
34674;BME280;20879;55.668;37.858;2023-04-29T11:59:56;99960.31;;;10.93;44.49
34674;BME280;20879;55.668;37.858;2023-04-29T12:02:31;99948.25;;;10.91;45.21
34674;BME280;20879;55.668;37.858;2023-04-29T12:05:07;99957.03;;;10.80;45.10
34674;BME280;20879;55.668;37.858;2023-04-29T12:07:38;99951.97;;;10.71;45.59
34674;BME280;20879;55.668;37.858;2023-04-29T12:10:28;99964.13;;;10.66;45.42
34674;BME280;20879;55.668;37.858;2023-04-29T12:12:58;99972.94;;;10.46;46.38
34674;BME280;20879;55.668;37.858;2023-04-29T12:15:29;99970.31;;;10.51;46.75
34674;BME280;20879;55.668;37.858;2023-04-29T12:18:02;99965.94;;;10.56;46.75
34674;BME280;20879;55.668;37.858;2023-04-29T12:23:20;99947.22;;;10.31;45.69
34674;BME280;20879;55.668;37.858;2023-04-29T12:25:54;99966.16;;;10.33;46.06
34674;BME280;20879;55.668;37.858;2023-04-29T12:28:24;99923.06;;;10.29;44.86
34674;BME280;20879;55.668;37.858;2023-04-29T12:30:54;99977.38;;;10.35;44.12
34674;BME280;20879;55.668;37.858;2023-04-29T12:33:28;99960.16;;;10.31;44.74
34674;BME280;20879;55.668;37.858;2023-04-29T12:35:58;99978.16;;;10.43;44.74
34674;BME280;20879;55.668;37.858;2023-04-29T12:38:29;99929.91;;;10.33;44.74
34674;BME280;20879;55.668;37.858;2023-04-29T12:40:59;99961.56;;;10.60;45.03
34674;BME280;20879;55.668;37.858;2023-04-29T12:43:31;99976.28;;;10.58;44.72
34674;BME280;20879;55.668;37.858;2023-04-29T12:51:47;99960.22;;;11.01;43.69
34674;BME280;20879;55.668;37.858;2023-04-29T12:54:17;99958.06;;;11.34;43.22
34674;BME280;20879;55.668;37.858;2023-04-29T12:56:47;99956.78;;;11.61;42.26
34674;BME280;20879;55.668;37.858;2023-04-29T12:59:21;99945.34;;;11.73;41.85
34674;BME280;20879;55.668;37.858;2023-04-29T13:01:51;99941.19;;;11.63;42.16
34674;BME280;20879;55.668;37.858;2023-04-29T13:04:26;99937.09;;;11.49;41.43
34674;BME280;20879;55.668;37.858;2023-04-29T13:06:58;99943.69;;;11.69;42.40
34674;BME280;20879;55.668;37.858;2023-04-29T13:09:28;99924.75;;;11.62;42.01
34674;BME280;20879;55.668;37.858;2023-04-29T13:11:58;99950.53;;;11.75;42.41
34674;BME280;20879;55.668;37.858;2023-04-29T13:14:34;99946.94;;;11.82;42.27
34674;BME280;20879;55.668;37.858;2023-04-29T13:17:03;99933.47;;;11.60;42.46
34674;BME280;20879;55.668;37.858;2023-04-29T13:19:38;99946.72;;;11.41;42.55
34674;BME280;20879;55.668;37.858;2023-04-29T13:22:20;99938.19;;;11.31;42.77
34674;BME280;20879;55.668;37.858;2023-04-29T13:24:49;99954.66;;;11.29;43.39
34674;BME280;20879;55.668;37.858;2023-04-29T13:27:29;99924.75;;;11.06;43.16
34674;BME280;20879;55.668;37.858;2023-04-29T13:29:59;99934.72;;;11.34;43.87
34674;BME280;20879;55.668;37.858;2023-04-29T13:32:30;99938.97;;;11.38;41.97
34674;BME280;20879;55.668;37.858;2023-04-29T13:35:16;99932.91;;;11.37;41.71
34674;BME280;20879;55.668;37.858;2023-04-29T13:37:48;99946.78;;;11.36;40.81
34674;BME280;20879;55.668;37.858;2023-04-29T13:40:18;99946.69;;;11.43;41.10
34674;BME280;20879;55.668;37.858;2023-04-29T13:42:48;99929.53;;;11.34;40.38
34674;BME280;20879;55.668;37.858;2023-04-29T13:45:31;99958.06;;;11.34;39.93
34674;BME280;20879;55.668;37.858;2023-04-29T13:48:06;99954.59;;;11.35;39.25
34674;BME280;20879;55.668;37.858;2023-04-29T13:50:56;99952.06;;;11.30;40.11
34674;BME280;20879;55.668;37.858;2023-04-29T13:53:31;99946.00;;;11.30;39.86
34674;BME280;20879;55.668;37.858;2023-04-29T13:56:26;99940.75;;;11.34;39.31
34674;BME280;20879;55.668;37.858;2023-04-29T13:59:22;99944.28;;;11.29;39.74
34674;BME280;20879;55.668;37.858;2023-04-29T14:02:01;99939.88;;;11.35;39.84